OMSJ/SHJ METAR and TAF weather

Enter ICAO airport designator
Station Type Date Time Source
OMSJ METAR 2020/04/05 07:00 UTC NOAA

OMSJ 050700Z 27005KT 210V300 CAVOK 33/10 Q1014 NOSIG


Station Type Date Time Source
OMSJ Decoded METAR 2020/04/05 07:00 UTC NOAA

Sharjah International Airport, United Arab Emirates (OMSJ) 25-20N 055-31E 33M
Apr 05, 2020 - 03:00 AM EDT / 2020.04.05 0700 UTC
Wind: from the W (270 degrees) at 6 MPH (5 KT) (direction variable):0
Visibility: greater than 7 mile(s):0
Temperature: 91 F (33 C)
Dew Point: 50 F (10 C)
Relative Humidity: 24%
Pressure (altimeter): 29.94 in. Hg (1014 hPa)
ob: OMSJ 050700Z 27005KT 210V300 CAVOK 33/10 Q1014 NOSIG
cycle: 7

Station Type Date Time Source
OMSJ TAF 2020/04/05 06:03 UTC NOAA

TAF OMSJ 050500Z 0506/0612 27013KT CAVOK
BECMG 0516/0518 21007KT
BECMG 0606/0608 27014KT

Example: see airport list